createdAt,value
2023-03-05T00:01:25.442Z,0.20
2023-03-05T00:03:55.927Z,0.10
2023-03-05T00:06:24.726Z,0.10
2023-03-05T00:08:57.077Z,0.20
2023-03-05T00:11:25.889Z,0.10
2023-03-05T00:13:53.085Z,0.10
2023-03-05T00:16:20.969Z,0.10
2023-03-05T00:18:48.969Z,0.10
2023-03-05T00:21:28.071Z,0.10
2023-03-05T00:23:57.042Z,0.10
2023-03-05T00:26:26.081Z,0.10
2023-03-05T00:28:53.580Z,0.20
2023-03-05T00:31:22.717Z,0.10
2023-03-05T00:33:54.537Z,0.10
2023-03-05T00:36:21.643Z,0.10
2023-03-05T00:38:48.694Z,0.00
2023-03-05T00:41:15.739Z,0.00
2023-03-05T00:43:42.906Z,0.00
2023-03-05T00:46:10.069Z,0.00
2023-03-05T00:48:37.006Z,0.00
2023-03-05T00:51:04.191Z,0.00
2023-03-05T00:53:31.398Z,0.00
2023-03-05T00:55:59.327Z,0.00
2023-03-05T00:58:26.382Z,0.10
2023-03-05T01:00:53.404Z,0.00
2023-03-05T01:03:20.356Z,0.00
2023-03-05T01:05:47.263Z,0.00
2023-03-05T01:08:15.454Z,0.00
2023-03-05T01:10:42.392Z,0.00
2023-03-05T01:13:09.922Z,-0.10
2023-03-05T01:15:36.848Z,0.00
2023-03-05T01:18:03.850Z,-0.10
2023-03-05T01:20:30.819Z,-0.20
2023-03-05T01:22:59.276Z,-0.20
2023-03-05T01:25:26.418Z,-0.20
2023-03-05T01:27:53.337Z,-0.30
2023-03-05T01:30:20.601Z,-0.30
2023-03-05T01:32:47.588Z,-0.30
2023-03-05T01:35:23.756Z,-0.40
2023-03-05T01:37:51.392Z,-0.30
2023-03-05T01:40:22.165Z,-0.40
2023-03-05T01:42:55.835Z,-0.40
2023-03-05T01:45:23.001Z,-0.40
2023-03-05T01:47:49.924Z,-0.40
2023-03-05T01:50:21.065Z,-0.40
2023-03-05T01:52:54.496Z,-0.40
2023-03-05T01:55:24.042Z,-0.40
2023-03-05T01:57:59.700Z,-0.30
2023-03-05T02:00:34.693Z,-0.30
2023-03-05T02:03:07.802Z,-0.30
2023-03-05T02:05:38.195Z,-0.20
2023-03-05T02:08:11.242Z,-0.20
2023-03-05T02:10:42.655Z,-0.30
2023-03-05T02:13:13.528Z,-0.30
2023-03-05T02:15:41.891Z,-0.30
2023-03-05T02:18:09.934Z,-0.30
2023-03-05T02:20:49.132Z,-0.40
2023-03-05T02:23:17.259Z,-0.40
2023-03-05T02:25:44.682Z,-0.50
2023-03-05T02:28:23.101Z,-0.50
2023-03-05T02:30:50.480Z,-0.50
2023-03-05T02:33:22.656Z,-0.50
2023-03-05T02:35:49.986Z,-0.40
2023-03-05T02:38:18.849Z,-0.40
2023-03-05T02:40:45.769Z,-0.40
2023-03-05T02:43:12.931Z,-0.30
2023-03-05T02:45:40.276Z,-0.30
2023-03-05T02:48:07.471Z,-0.20
2023-03-05T02:50:35.150Z,-0.20
2023-03-05T02:53:02.320Z,-0.20
2023-03-05T02:55:29.269Z,-0.10
2023-03-05T02:57:56.171Z,-0.10
2023-03-05T03:00:23.241Z,0.00
2023-03-05T03:02:50.355Z,0.00
2023-03-05T03:05:17.376Z,0.10
2023-03-05T03:07:44.644Z,0.10
2023-03-05T03:10:12.685Z,0.10
2023-03-05T03:12:44.805Z,0.10
2023-03-05T03:15:13.986Z,0.10
2023-03-05T03:17:40.959Z,0.10
2023-03-05T03:20:11.548Z,0.20
2023-03-05T03:22:38.450Z,0.10
2023-03-05T03:25:05.912Z,0.10
2023-03-05T03:27:32.893Z,0.00
2023-03-05T03:30:02.978Z,0.10
2023-03-05T03:32:29.970Z,0.00
2023-03-05T03:34:57.115Z,0.00
2023-03-05T03:37:24.485Z,0.00
2023-03-05T03:39:51.368Z,-0.10
2023-03-05T03:42:19.800Z,-0.10
2023-03-05T03:44:47.125Z,-0.10
2023-03-05T03:47:14.264Z,0.00
2023-03-05T03:49:41.197Z,-0.10
2023-03-05T03:52:08.718Z,-0.10
2023-03-05T03:54:35.786Z,-0.10
2023-03-05T03:57:02.744Z,0.00
2023-03-05T03:59:29.724Z,0.00
2023-03-05T04:01:56.582Z,-0.10
2023-03-05T04:04:23.574Z,0.00
2023-03-05T04:06:50.574Z,0.00
2023-03-05T04:09:17.481Z,0.10
2023-03-05T04:11:44.393Z,0.00
2023-03-05T04:14:11.378Z,0.00
2023-03-05T04:16:40.749Z,0.00
2023-03-05T04:19:07.847Z,0.10
2023-03-05T04:21:34.813Z,0.00
2023-03-05T04:24:01.760Z,0.00
2023-03-05T04:26:28.752Z,0.00
2023-03-05T04:28:55.662Z,0.00
2023-03-05T04:31:24.010Z,0.10
2023-03-05T04:33:51.188Z,0.10
2023-03-05T04:36:18.135Z,0.10
2023-03-05T04:38:45.030Z,0.00
2023-03-05T04:41:11.939Z,0.00
2023-03-05T04:43:38.827Z,0.10
2023-03-05T04:46:05.724Z,0.10
2023-03-05T04:48:35.046Z,0.00
2023-03-05T04:51:01.999Z,0.00
2023-03-05T04:53:31.234Z,0.00
2023-03-05T04:55:58.384Z,0.00
2023-03-05T04:58:25.288Z,-0.10
2023-03-05T05:00:52.152Z,-0.10
2023-03-05T05:03:19.392Z,-0.10
2023-03-05T05:05:46.352Z,-0.10
2023-03-05T05:08:13.242Z,-0.10
2023-03-05T05:10:40.240Z,-0.10
2023-03-05T05:13:07.771Z,-0.10
2023-03-05T05:15:34.639Z,0.00
2023-03-05T05:18:01.509Z,0.00
2023-03-05T05:20:28.622Z,0.00
2023-03-05T05:22:55.558Z,-0.10
2023-03-05T05:25:22.424Z,0.00
2023-03-05T05:27:49.360Z,-0.10
2023-03-05T05:30:16.358Z,0.00
2023-03-05T05:32:43.294Z,0.00
2023-03-05T05:35:11.079Z,-0.10
2023-03-05T05:37:37.991Z,0.00
2023-03-05T05:40:08.416Z,0.10
2023-03-05T05:42:35.482Z,0.10
2023-03-05T05:45:03.136Z,0.10
2023-03-05T05:47:30.401Z,0.20
2023-03-05T05:49:57.706Z,0.20
2023-03-05T05:52:24.587Z,0.20
2023-03-05T05:54:51.500Z,0.20
2023-03-05T05:57:18.603Z,0.20
2023-03-05T05:59:45.460Z,0.20
2023-03-05T06:02:12.532Z,0.30
2023-03-05T06:04:40.426Z,0.30
2023-03-05T06:07:07.300Z,0.30
2023-03-05T06:09:36.260Z,0.20
2023-03-05T06:12:03.717Z,0.30
2023-03-05T06:14:30.774Z,0.40
2023-03-05T06:16:57.665Z,0.40
2023-03-05T06:19:24.608Z,0.30
2023-03-05T06:21:51.528Z,0.40
2023-03-05T06:24:19.479Z,0.40
2023-03-05T06:26:48.644Z,0.40
2023-03-05T06:29:15.873Z,0.40
2023-03-05T06:31:42.839Z,0.50
2023-03-05T06:34:10.749Z,0.50
2023-03-05T06:36:40.584Z,0.50
2023-03-05T06:39:07.501Z,0.50
2023-03-05T06:41:34.501Z,0.60
2023-03-05T06:44:03.207Z,0.50
2023-03-05T06:46:32.684Z,0.50
2023-03-05T06:49:01.763Z,0.50
2023-03-05T06:51:34.425Z,0.50
2023-03-05T06:54:04.595Z,0.60
2023-03-05T06:56:31.857Z,0.60
2023-03-05T06:58:59.300Z,0.70
2023-03-05T07:01:26.488Z,0.70
2023-03-05T07:03:55.042Z,0.70
2023-03-05T07:06:22.806Z,0.80
2023-03-05T07:08:49.788Z,0.90
2023-03-05T07:11:20.025Z,1.10
2023-03-05T07:13:50.931Z,1.00
2023-03-05T07:16:21.102Z,1.00
2023-03-05T07:18:48.816Z,1.20
2023-03-05T07:21:19.513Z,1.30
2023-03-05T07:23:49.174Z,1.50
2023-03-05T07:26:16.508Z,1.50
2023-03-05T07:28:43.681Z,1.50
2023-03-05T07:31:17.956Z,1.60
2023-03-05T07:33:49.057Z,1.60
2023-03-05T07:36:16.589Z,1.80
2023-03-05T07:38:43.724Z,1.90
2023-03-05T07:41:13.397Z,1.90
2023-03-05T07:43:40.788Z,1.70
2023-03-05T07:46:10.354Z,1.40
2023-03-05T07:48:38.025Z,1.40
2023-03-05T07:51:07.586Z,1.40
2023-03-05T07:53:34.776Z,1.40
2023-03-05T07:56:02.942Z,1.20
2023-03-05T07:58:29.811Z,1.10
2023-03-05T08:00:56.709Z,0.90
2023-03-05T08:03:23.745Z,1.00
2023-03-05T08:05:50.627Z,1.00
2023-03-05T08:08:17.720Z,1.00
2023-03-05T08:10:44.703Z,1.10
2023-03-05T08:13:11.714Z,1.10
2023-03-05T08:15:38.997Z,1.20
2023-03-05T08:18:06.226Z,1.10
2023-03-05T08:20:36.616Z,1.20
2023-03-05T08:23:03.985Z,1.40
2023-03-05T08:25:31.700Z,1.50
2023-03-05T08:27:58.739Z,1.60
2023-03-05T08:30:27.542Z,1.80
2023-03-05T08:32:55.366Z,1.70
2023-03-05T08:35:22.744Z,2.00
2023-03-05T08:37:49.865Z,2.00
2023-03-05T08:40:20.361Z,1.80
2023-03-05T08:42:47.560Z,1.80
2023-03-05T08:45:14.542Z,1.70
2023-03-05T08:47:41.496Z,1.80
2023-03-05T08:50:09.487Z,1.80
2023-03-05T08:52:36.407Z,1.80
2023-03-05T08:55:03.576Z,2.10
2023-03-05T08:57:30.581Z,2.80
2023-03-05T08:59:57.543Z,2.90
2023-03-05T09:02:24.453Z,3.10
2023-03-05T09:04:51.542Z,3.30
2023-03-05T09:07:18.531Z,3.00
2023-03-05T09:09:45.448Z,3.10
2023-03-05T09:12:13.460Z,3.10
2023-03-05T09:14:44.238Z,2.90
2023-03-05T09:17:13.643Z,3.10
2023-03-05T09:19:40.505Z,3.10
2023-03-05T09:22:07.451Z,3.10
2023-03-05T09:24:34.325Z,3.40
2023-03-05T09:27:01.189Z,3.50
2023-03-05T09:29:30.094Z,3.90
2023-03-05T09:32:04.526Z,3.60
2023-03-05T09:34:32.195Z,3.10
2023-03-05T09:36:59.056Z,3.10
2023-03-05T09:39:26.050Z,2.80
2023-03-05T09:42:14.602Z,2.40
2023-03-05T09:44:46.699Z,2.40
2023-03-05T09:47:35.198Z,2.60
2023-03-05T09:50:13.128Z,2.70
2023-03-05T09:52:47.482Z,2.70
2023-03-05T09:55:22.763Z,2.50
2023-03-05T09:57:54.827Z,2.60
2023-03-05T10:00:26.803Z,2.50
2023-03-05T10:02:58.506Z,2.20
2023-03-05T10:05:32.743Z,2.20
2023-03-05T10:08:03.960Z,2.00
2023-03-05T10:10:43.162Z,2.20
2023-03-05T10:13:23.560Z,2.20
2023-03-05T10:16:29.384Z,2.00
2023-03-05T10:19:08.501Z,2.00
2023-03-05T10:21:56.957Z,1.90
2023-03-05T10:24:36.329Z,2.10
2023-03-05T10:27:14.087Z,2.00
2023-03-05T10:30:07.036Z,2.00
2023-03-05T10:32:37.033Z,2.00
2023-03-05T10:35:19.086Z,2.00
2023-03-05T10:38:04.460Z,1.90
2023-03-05T10:40:46.937Z,2.00
2023-03-05T10:43:24.307Z,2.10
2023-03-05T10:45:54.093Z,2.10
2023-03-05T10:48:42.847Z,2.20
2023-03-05T10:51:19.483Z,2.10
2023-03-05T10:54:04.898Z,2.20
2023-03-05T10:56:34.690Z,2.20
2023-03-05T10:59:04.049Z,1.90
2023-03-05T11:01:32.023Z,1.70
2023-03-05T11:04:01.195Z,1.40
2023-03-05T11:06:34.353Z,1.40
2023-03-05T11:09:19.372Z,1.50
2023-03-05T11:12:02.699Z,1.40
2023-03-05T11:14:33.215Z,1.80
2023-03-05T11:17:01.985Z,2.40
2023-03-05T11:19:34.022Z,2.80
2023-03-05T11:22:20.720Z,3.10
2023-03-05T11:25:12.662Z,3.20
2023-03-05T11:27:51.988Z,2.80
2023-03-05T11:30:26.950Z,2.60
2023-03-05T11:33:15.463Z,2.30
2023-03-05T11:35:46.726Z,2.20
2023-03-05T11:38:24.593Z,2.50
2023-03-05T11:40:53.947Z,3.00
2023-03-05T11:43:24.808Z,3.70
2023-03-05T11:46:01.656Z,4.00
2023-03-05T11:48:39.952Z,4.00
2023-03-05T11:51:42.802Z,3.30
2023-03-05T11:54:16.496Z,2.80
2023-03-05T11:56:46.482Z,2.30
2023-03-05T11:59:29.582Z,2.20
2023-03-05T12:01:58.469Z,2.10
2023-03-05T12:04:26.216Z,2.10
2023-03-05T12:07:03.331Z,2.20
2023-03-05T12:09:49.549Z,2.50
2023-03-05T12:12:55.274Z,2.90
2023-03-05T12:15:29.134Z,3.50
2023-03-05T12:18:26.922Z,4.10
2023-03-05T12:21:04.749Z,4.60
2023-03-05T12:23:46.569Z,4.30
2023-03-05T12:26:13.511Z,4.00
2023-03-05T12:28:43.280Z,3.60
2023-03-05T12:31:10.190Z,3.30
2023-03-05T12:33:45.838Z,2.90
2023-03-05T12:36:21.626Z,2.70
2023-03-05T12:38:55.777Z,2.50
2023-03-05T12:41:22.615Z,2.10
2023-03-05T12:44:07.554Z,2.20
2023-03-05T12:46:36.418Z,2.40
2023-03-05T12:49:18.810Z,2.70
2023-03-05T12:51:48.243Z,2.80
2023-03-05T12:54:34.541Z,2.60
2023-03-05T12:57:29.664Z,2.50
2023-03-05T13:00:11.935Z,2.00
2023-03-05T13:02:44.657Z,1.80
2023-03-05T13:05:32.807Z,1.70
2023-03-05T13:08:31.812Z,1.60
2023-03-05T13:11:29.590Z,1.70
2023-03-05T13:13:57.255Z,1.90
2023-03-05T13:16:30.413Z,2.00
2023-03-05T13:19:02.012Z,2.30
2023-03-05T13:21:31.598Z,2.40
2023-03-05T13:24:03.335Z,2.50
2023-03-05T13:26:37.269Z,2.40
2023-03-05T13:29:06.337Z,2.20
2023-03-05T13:31:41.528Z,2.30
2023-03-05T13:34:10.763Z,2.10
2023-03-05T13:36:38.631Z,1.90
2023-03-05T13:39:06.831Z,1.90
2023-03-05T13:41:34.109Z,2.00
2023-03-05T13:44:02.598Z,2.00
2023-03-05T13:46:35.998Z,2.10
2023-03-05T13:49:21.813Z,2.10
2023-03-05T13:51:52.637Z,2.20
2023-03-05T13:54:20.077Z,2.20
2023-03-05T13:57:01.933Z,2.10
2023-03-05T13:59:31.411Z,2.00
2023-03-05T14:02:00.819Z,1.90
2023-03-05T14:04:46.950Z,1.70
2023-03-05T14:07:41.299Z,1.60
2023-03-05T14:10:30.053Z,1.50
2023-03-05T14:12:58.411Z,1.50
2023-03-05T14:15:28.287Z,1.40
2023-03-05T14:18:19.631Z,1.40
2023-03-05T14:21:11.183Z,1.40
2023-03-05T14:23:46.120Z,1.50
2023-03-05T14:26:32.173Z,1.40
2023-03-05T14:29:11.242Z,1.40
2023-03-05T14:32:02.204Z,1.30
2023-03-05T14:34:42.120Z,1.30
2023-03-05T14:37:34.412Z,1.20
2023-03-05T14:40:23.201Z,1.10
2023-03-05T14:42:59.887Z,1.00
2023-03-05T14:45:31.471Z,1.00
2023-03-05T14:48:00.562Z,0.90
2023-03-05T14:50:33.574Z,1.00
2023-03-05T14:53:08.531Z,0.90
2023-03-05T14:55:38.482Z,1.00
2023-03-05T14:58:14.733Z,0.90
2023-03-05T15:00:42.680Z,1.00
2023-03-05T15:03:14.487Z,0.90
2023-03-05T15:05:42.429Z,0.90
2023-03-05T15:08:20.405Z,0.80
2023-03-05T15:10:47.654Z,0.70
2023-03-05T15:13:16.304Z,0.60
2023-03-05T15:15:43.961Z,0.60
2023-03-05T15:18:13.830Z,0.60
2023-03-05T15:20:41.082Z,0.60
2023-03-05T15:23:08.076Z,0.50
2023-03-05T15:25:35.143Z,0.40
2023-03-05T15:28:02.501Z,0.40
2023-03-05T15:30:30.883Z,0.40
2023-03-05T15:33:00.929Z,0.40
2023-03-05T15:35:28.231Z,0.30
2023-03-05T15:37:55.931Z,0.30
2023-03-05T15:40:27.461Z,0.20
2023-03-05T15:42:55.699Z,0.20
2023-03-05T15:45:23.543Z,0.30
2023-03-05T15:47:52.377Z,0.10
2023-03-05T15:50:20.910Z,0.10
2023-03-05T15:52:48.100Z,0.20
2023-03-05T15:55:15.019Z,0.10
2023-03-05T15:57:48.173Z,0.20
2023-03-05T16:00:18.081Z,0.20
2023-03-05T16:02:45.031Z,0.10
2023-03-05T16:05:12.011Z,0.10
2023-03-05T16:07:42.651Z,0.10
2023-03-05T16:10:14.673Z,0.10
2023-03-05T16:12:43.106Z,0.10
2023-03-05T16:15:17.540Z,0.00
2023-03-05T16:17:47.352Z,0.00
2023-03-05T16:20:15.439Z,0.00
2023-03-05T16:22:42.510Z,0.10
2023-03-05T16:25:09.690Z,0.10
2023-03-05T16:27:36.619Z,0.00
2023-03-05T16:30:05.483Z,0.00
2023-03-05T16:32:32.587Z,0.00
2023-03-05T16:34:59.640Z,0.00
2023-03-05T16:37:26.561Z,-0.10
2023-03-05T16:39:53.433Z,-0.10
2023-03-05T16:42:20.431Z,-0.10
2023-03-05T16:44:47.587Z,-0.10
2023-03-05T16:47:14.683Z,-0.10
2023-03-05T16:49:41.576Z,-0.10
2023-03-05T16:52:18.706Z,-0.10
2023-03-05T16:54:47.166Z,-0.10
2023-03-05T16:57:14.678Z,-0.10
2023-03-05T16:59:43.802Z,-0.20
2023-03-05T17:02:13.275Z,-0.10
2023-03-05T17:04:40.348Z,-0.10
2023-03-05T17:07:07.865Z,-0.10
2023-03-05T17:09:35.291Z,-0.20
2023-03-05T17:12:02.337Z,-0.30
2023-03-05T17:14:29.581Z,-0.30
2023-03-05T17:16:56.511Z,-0.40
2023-03-05T17:19:23.402Z,-0.40
2023-03-05T17:21:52.364Z,-0.50
2023-03-05T17:24:22.313Z,-0.50
2023-03-05T17:26:50.301Z,-0.50
2023-03-05T17:29:19.051Z,-0.50
2023-03-05T17:31:46.888Z,-0.50
2023-03-05T17:34:14.576Z,-0.60
2023-03-05T17:36:41.666Z,-0.60
2023-03-05T17:39:08.967Z,-0.70
2023-03-05T17:41:35.864Z,-0.70
2023-03-05T17:44:03.540Z,-0.80
2023-03-05T17:46:31.202Z,-0.80
2023-03-05T17:48:58.113Z,-0.80
2023-03-05T17:51:24.986Z,-0.80
2023-03-05T17:53:51.979Z,-0.80
2023-03-05T17:56:22.085Z,-0.80
2023-03-05T17:58:49.945Z,-0.80
2023-03-05T18:01:31.539Z,-0.80
2023-03-05T18:03:59.082Z,-0.90
2023-03-05T18:06:26.712Z,-0.80
2023-03-05T18:08:53.683Z,-0.70
2023-03-05T18:11:21.077Z,-0.80
2023-03-05T18:13:47.930Z,-0.80
2023-03-05T18:16:17.084Z,-0.80
2023-03-05T18:18:44.951Z,-0.80
2023-03-05T18:21:11.880Z,-0.80
2023-03-05T18:23:38.809Z,-0.80
2023-03-05T18:26:05.775Z,-0.80
2023-03-05T18:28:32.653Z,-0.90
2023-03-05T18:30:59.700Z,-0.90
2023-03-05T18:33:26.613Z,-0.90
2023-03-05T18:35:53.735Z,-0.90
2023-03-05T18:38:26.259Z,-0.90
2023-03-05T18:40:55.481Z,-0.90
2023-03-05T18:43:24.250Z,-1.00
2023-03-05T18:45:53.102Z,-0.90
2023-03-05T18:48:21.179Z,-1.00
2023-03-05T18:50:56.677Z,-1.00
2023-03-05T18:53:23.895Z,-0.90
2023-03-05T18:55:52.706Z,-1.00
2023-03-05T18:58:20.091Z,-1.00
2023-03-05T19:00:48.077Z,-1.00
2023-03-05T19:03:16.014Z,-1.00
2023-03-05T19:05:43.087Z,-1.00
2023-03-05T19:08:10.537Z,-1.10
2023-03-05T19:10:37.784Z,-1.10
2023-03-05T19:13:41.018Z,-1.10
2023-03-05T19:16:14.803Z,-1.10
2023-03-05T19:19:16.738Z,-1.20
2023-03-05T19:21:48.779Z,-1.20
2023-03-05T19:24:16.553Z,-1.10
2023-03-05T19:26:44.232Z,-1.20
2023-03-05T19:29:12.020Z,-1.20
2023-03-05T19:31:39.148Z,-1.20
2023-03-05T19:34:08.756Z,-1.20
2023-03-05T19:36:35.757Z,-1.30
2023-03-05T19:39:07.287Z,-1.20
2023-03-05T19:41:34.648Z,-1.20
2023-03-05T19:44:02.187Z,-1.20
2023-03-05T19:46:29.248Z,-1.20
2023-03-05T19:48:56.275Z,-1.20
2023-03-05T19:51:25.593Z,-1.20
2023-03-05T19:53:52.938Z,-1.20
2023-03-05T19:56:19.872Z,-1.20
2023-03-05T19:58:48.957Z,-1.20
2023-03-05T20:01:27.297Z,-1.30
2023-03-05T20:03:56.752Z,-1.20
2023-03-05T20:06:24.896Z,-1.20
2023-03-05T20:08:52.431Z,-1.30
2023-03-05T20:11:21.272Z,-1.30
2023-03-05T20:13:49.020Z,-1.30
2023-03-05T20:16:19.970Z,-1.40
2023-03-05T20:18:47.836Z,-1.40
2023-03-05T20:21:21.618Z,-1.40
2023-03-05T20:23:52.349Z,-1.40
2023-03-05T20:26:20.577Z,-1.50
2023-03-05T20:28:48.567Z,-1.50
2023-03-05T20:31:22.174Z,-1.50
2023-03-05T20:33:49.660Z,-1.50
2023-03-05T20:36:17.291Z,-1.40
2023-03-05T20:38:45.815Z,-1.50
2023-03-05T20:41:16.551Z,-1.50
2023-03-05T20:43:46.234Z,-1.50
2023-03-05T20:46:22.869Z,-1.50
2023-03-05T20:48:52.013Z,-1.60
2023-03-05T20:51:25.318Z,-1.60
2023-03-05T20:53:54.327Z,-1.60
2023-03-05T20:56:21.374Z,-1.70
2023-03-05T20:58:48.334Z,-1.70
2023-03-05T21:01:15.270Z,-1.70
2023-03-05T21:03:42.144Z,-1.70
2023-03-05T21:06:09.049Z,-1.80
2023-03-05T21:08:36.012Z,-1.80
2023-03-05T21:11:09.526Z,-1.80
2023-03-05T21:13:36.969Z,-1.80
2023-03-05T21:16:21.023Z,-1.80
2023-03-05T21:18:48.552Z,-1.80
2023-03-05T21:21:15.434Z,-1.80
2023-03-05T21:23:42.394Z,-1.90
2023-03-05T21:26:09.365Z,-1.90
2023-03-05T21:28:36.563Z,-2.00
2023-03-05T21:31:15.239Z,-2.00
2023-03-05T21:33:42.286Z,-2.00
2023-03-05T21:36:09.631Z,-2.00
2023-03-05T21:38:36.767Z,-2.00
2023-03-05T21:41:06.177Z,-2.00
2023-03-05T21:43:33.764Z,-2.00
2023-03-05T21:46:03.235Z,-2.00
2023-03-05T21:48:30.683Z,-2.00
2023-03-05T21:50:58.554Z,-2.00
2023-03-05T21:53:26.150Z,-2.00
2023-03-05T21:56:31.060Z,-1.90
2023-03-05T21:58:58.047Z,-1.90
2023-03-05T22:01:25.000Z,-1.80
2023-03-05T22:03:51.991Z,-1.80
2023-03-05T22:06:20.380Z,-1.80
2023-03-05T22:08:47.518Z,-1.80
2023-03-05T22:11:17.467Z,-1.80
2023-03-05T22:13:44.417Z,-1.80
2023-03-05T22:16:12.289Z,-1.70
2023-03-05T22:18:39.206Z,-1.70
2023-03-05T22:21:14.622Z,-1.70
2023-03-05T22:23:41.495Z,-1.80
2023-03-05T22:26:08.373Z,-1.80
2023-03-05T22:28:39.025Z,-1.70
2023-03-05T22:31:06.574Z,-1.70
2023-03-05T22:33:33.506Z,-1.70
2023-03-05T22:36:00.737Z,-1.70
2023-03-05T22:38:33.448Z,-1.70
2023-03-05T22:44:32.944Z,-1.80
2023-03-05T22:47:00.114Z,-1.90
2023-03-05T22:49:26.988Z,-1.90
2023-03-05T22:51:53.893Z,-2.00
2023-03-05T22:54:20.880Z,-2.00
2023-03-05T22:56:47.798Z,-2.00
2023-03-05T22:59:14.723Z,-2.00
2023-03-05T23:01:41.702Z,-2.10
2023-03-05T23:04:43.046Z,-2.10
2023-03-05T23:07:09.956Z,-2.20
2023-03-05T23:09:36.835Z,-2.20
2023-03-05T23:12:03.931Z,-2.30
2023-03-05T23:14:30.869Z,-2.40
2023-03-05T23:16:57.889Z,-2.40
2023-03-05T23:19:24.797Z,-2.40
2023-03-05T23:21:51.898Z,-2.50
2023-03-05T23:24:18.839Z,-2.50
2023-03-05T23:26:45.814Z,-2.50
2023-03-05T23:29:17.590Z,-2.60
2023-03-05T23:31:44.466Z,-2.60
2023-03-05T23:34:11.329Z,-2.60
2023-03-05T23:36:38.241Z,-2.60
2023-03-05T23:39:05.246Z,-2.60
2023-03-05T23:41:32.141Z,-2.70
2023-03-05T23:43:59.034Z,-2.70
2023-03-05T23:46:26.169Z,-2.70
2023-03-05T23:48:53.078Z,-2.70
2023-03-05T23:51:19.948Z,-2.80
2023-03-05T23:53:46.863Z,-2.70
2023-03-05T23:56:13.731Z,-2.70
2023-03-05T23:58:42.722Z,-2.80
